createdAt,value
2019-05-13T00:01:39.445Z,99.90
2019-05-13T00:04:10.512Z,99.90
2019-05-13T00:06:53.169Z,99.90
2019-05-13T00:09:14.139Z,99.90
2019-05-13T00:11:44.856Z,99.90
2019-05-13T00:14:15.343Z,99.90
2019-05-13T00:16:45.894Z,99.90
2019-05-13T00:19:16.423Z,99.90
2019-05-13T00:21:47.757Z,99.90
2019-05-13T00:24:18.264Z,99.90
2019-05-13T00:26:49.113Z,99.90
2019-05-13T00:29:19.786Z,99.90
2019-05-13T00:31:50.364Z,99.90
2019-05-13T00:34:20.898Z,99.90
2019-05-13T00:37:07.398Z,99.90
2019-05-13T00:39:24.665Z,99.90
2019-05-13T00:41:55.568Z,99.90
2019-05-13T00:44:26.657Z,99.90
2019-05-13T00:46:57.247Z,99.90
2019-05-13T00:49:27.732Z,99.90
2019-05-13T00:51:58.356Z,99.90
2019-05-13T00:54:29.577Z,99.90
2019-05-13T00:57:00.068Z,99.90
2019-05-13T00:59:33.921Z,99.90
2019-05-13T01:02:04.600Z,99.90
2019-05-13T01:04:35.060Z,99.90
2019-05-13T01:07:05.512Z,99.90
2019-05-13T01:09:36.424Z,99.90
2019-05-13T01:12:08.656Z,99.90
2019-05-13T01:14:39.206Z,99.90
2019-05-13T01:17:09.825Z,99.90
2019-05-13T01:19:43.208Z,99.90
2019-05-13T01:22:15.284Z,99.90
2019-05-13T01:24:45.789Z,99.90
2019-05-13T01:27:16.343Z,99.90
2019-05-13T01:29:46.824Z,99.90
2019-05-13T01:32:17.301Z,99.90
2019-05-13T01:34:47.800Z,99.90
2019-05-13T01:37:18.330Z,99.90
2019-05-13T01:39:48.841Z,99.90
2019-05-13T01:42:19.412Z,99.90
2019-05-13T01:44:53.393Z,99.90
2019-05-13T01:47:24.190Z,99.90
2019-05-13T01:49:54.664Z,99.90
2019-05-13T01:52:25.235Z,99.90
2019-05-13T01:54:55.740Z,99.90
2019-05-13T01:57:26.718Z,99.90
2019-05-13T01:59:57.208Z,99.90
2019-05-13T02:02:27.756Z,99.90
2019-05-13T02:04:58.460Z,99.90
2019-05-13T02:07:29.392Z,99.90
2019-05-13T02:10:00.823Z,99.90
2019-05-13T02:12:33.903Z,99.90
2019-05-13T02:15:04.796Z,99.90
2019-05-13T02:17:35.414Z,99.90
2019-05-13T02:20:06.376Z,99.90
2019-05-13T02:22:36.886Z,99.90
2019-05-13T02:25:07.640Z,99.90
2019-05-13T02:27:38.120Z,99.90
2019-05-13T02:30:08.857Z,99.90
2019-05-13T02:32:42.484Z,99.90
2019-05-13T02:35:13.914Z,99.90
2019-05-13T02:37:44.535Z,99.90
2019-05-13T02:40:15.045Z,99.90
2019-05-13T02:42:45.604Z,99.90
2019-05-13T02:45:16.118Z,99.90
2019-05-13T02:47:47.601Z,99.90
2019-05-13T02:50:18.197Z,99.90
2019-05-13T02:52:48.664Z,99.90
2019-05-13T02:55:22.150Z,99.90
2019-05-13T02:57:52.876Z,99.90
2019-05-13T03:00:23.648Z,99.90
2019-05-13T03:02:54.282Z,99.90
2019-05-13T03:05:24.828Z,99.90
2019-05-13T03:07:55.470Z,99.90
2019-05-13T03:10:26.040Z,99.90
2019-05-13T03:12:56.565Z,99.90
2019-05-13T03:15:28.662Z,99.90
2019-05-13T03:18:06.248Z,99.90
2019-05-13T03:20:37.232Z,99.90
2019-05-13T03:23:07.770Z,99.90
2019-05-13T03:25:38.412Z,99.90
2019-05-13T03:28:13.211Z,99.90
2019-05-13T03:30:45.826Z,99.90
2019-05-13T03:33:19.690Z,99.90
2019-05-13T03:35:46.881Z,99.90
2019-05-13T03:38:17.406Z,99.90
2019-05-13T03:40:48.638Z,99.90
2019-05-13T03:43:22.953Z,99.90
2019-05-13T03:45:54.906Z,99.90
2019-05-13T03:48:25.972Z,99.90
2019-05-13T03:50:57.750Z,99.90
2019-05-13T03:53:28.815Z,99.90
2019-05-13T03:56:02.330Z,99.90
2019-05-13T03:58:32.563Z,99.90
2019-05-13T04:01:03.626Z,99.90
2019-05-13T04:03:34.229Z,99.90
2019-05-13T04:06:05.286Z,99.90
2019-05-13T04:08:37.056Z,99.90
2019-05-13T04:11:08.093Z,99.90
2019-05-13T04:13:38.632Z,99.90
2019-05-13T04:16:12.380Z,99.90
2019-05-13T04:18:42.773Z,99.90
2019-05-13T04:21:13.783Z,99.90
2019-05-13T04:23:44.930Z,99.90
2019-05-13T04:26:15.859Z,99.90
2019-05-13T04:28:46.375Z,99.90
2019-05-13T04:31:16.898Z,99.90
2019-05-13T04:33:47.447Z,99.90
2019-05-13T04:36:23.024Z,99.90
2019-05-13T04:38:52.871Z,99.90
2019-05-13T04:41:23.834Z,99.90
2019-05-13T04:43:54.933Z,99.90
2019-05-13T04:46:32.795Z,99.90
2019-05-13T04:49:04.964Z,99.90
2019-05-13T04:51:47.831Z,99.90
2019-05-13T04:54:22.320Z,99.90
2019-05-13T04:56:52.716Z,99.90
2019-05-13T04:59:26.484Z,99.90
2019-05-13T05:02:49.658Z,99.90
2019-05-13T05:05:36.135Z,99.90
2019-05-13T05:08:54.151Z,99.90
2019-05-13T05:11:49.114Z,99.90
2019-05-13T05:14:45.543Z,99.90
2019-05-13T05:18:11.658Z,99.90
2019-05-13T05:21:19.161Z,99.90
2019-05-13T05:24:25.642Z,99.90
2019-05-13T05:27:52.789Z,99.90
2019-05-13T05:30:51.872Z,99.90
2019-05-13T05:34:18.812Z,99.90
2019-05-13T05:37:32.514Z,99.90
2019-05-13T05:40:04.728Z,99.90
2019-05-13T05:42:37.720Z,99.90
2019-05-13T05:45:11.470Z,99.90
2019-05-13T05:47:44.396Z,99.90
2019-05-13T05:50:14.873Z,99.90
2019-05-13T05:52:48.425Z,99.90
2019-05-13T05:55:20.834Z,99.90
2019-05-13T05:57:52.669Z,99.90
2019-05-13T06:00:23.185Z,99.90
2019-05-13T06:02:56.821Z,99.90
2019-05-13T06:05:28.060Z,99.90
2019-05-13T06:07:58.589Z,99.90
2019-05-13T06:10:42.629Z,99.90
2019-05-13T06:13:04.811Z,99.90
2019-05-13T06:15:36.324Z,99.90
2019-05-13T06:18:06.886Z,99.90
2019-05-13T06:20:37.540Z,99.90
2019-05-13T06:23:08.109Z,99.90
2019-05-13T06:25:38.662Z,99.90
2019-05-13T06:28:12.445Z,99.90
2019-05-13T06:30:42.790Z,99.90
2019-05-13T06:33:13.517Z,99.90
2019-05-13T06:35:44.966Z,99.90
2019-05-13T06:38:15.648Z,99.90
2019-05-13T06:40:59.469Z,99.90
2019-05-13T06:43:21.159Z,99.90
2019-05-13T06:45:51.520Z,99.90
2019-05-13T06:48:23.234Z,99.90
2019-05-13T06:50:54.124Z,99.90
2019-05-13T06:53:24.629Z,99.90
2019-05-13T06:55:56.029Z,99.90
2019-05-13T06:58:26.558Z,99.90
2019-05-13T07:00:58.214Z,99.90
2019-05-13T07:03:29.154Z,99.90
2019-05-13T07:06:01.843Z,99.90
2019-05-13T07:08:32.271Z,99.90
2019-05-13T07:11:17.700Z,99.90
2019-05-13T07:13:37.592Z,99.90
2019-05-13T07:16:08.119Z,99.90
2019-05-13T07:18:41.379Z,99.90
2019-05-13T07:21:12.669Z,99.90
2019-05-13T07:23:44.973Z,99.90
2019-05-13T07:26:15.969Z,99.90
2019-05-13T07:28:46.365Z,99.90
2019-05-13T07:31:17.229Z,99.90
2019-05-13T07:33:47.702Z,99.90
2019-05-13T07:36:18.946Z,99.90
2019-05-13T07:38:52.092Z,99.90
2019-05-13T07:41:35.338Z,99.90
2019-05-13T07:43:56.081Z,99.90
2019-05-13T07:46:26.982Z,99.90
2019-05-13T07:48:57.518Z,99.90
2019-05-13T07:51:28.298Z,99.90
2019-05-13T07:54:01.997Z,99.90
2019-05-13T07:56:32.564Z,99.90
2019-05-13T07:59:03.750Z,99.90
2019-05-13T08:01:35.329Z,99.90
2019-05-13T08:04:34.186Z,99.90
2019-05-13T08:07:12.212Z,99.90
2019-05-13T08:09:43.834Z,99.90
2019-05-13T08:12:31.922Z,99.90
2019-05-13T08:15:11.896Z,99.90
2019-05-13T08:17:47.335Z,99.90
2019-05-13T08:20:15.633Z,99.90
2019-05-13T08:22:46.211Z,99.90
2019-05-13T08:25:16.710Z,99.90
2019-05-13T08:27:47.276Z,99.90
2019-05-13T08:30:18.744Z,99.90
2019-05-13T08:32:49.317Z,99.90
2019-05-13T08:35:22.431Z,99.90
2019-05-13T08:37:52.648Z,99.90
2019-05-13T08:40:24.062Z,99.90
2019-05-13T08:42:55.773Z,99.90
2019-05-13T08:45:26.419Z,99.90
2019-05-13T08:47:57.381Z,99.90
2019-05-13T08:50:27.886Z,99.90
2019-05-13T08:53:01.635Z,99.90
2019-05-13T08:55:32.301Z,99.90
2019-05-13T08:58:03.273Z,99.90
2019-05-13T09:00:53.919Z,99.90
2019-05-13T09:03:25.015Z,99.90
2019-05-13T09:05:55.928Z,99.90
2019-05-13T09:08:26.823Z,99.90
2019-05-13T09:10:58.611Z,99.90
2019-05-13T09:13:29.931Z,99.90
2019-05-13T09:16:02.392Z,99.90
2019-05-13T09:18:34.034Z,99.90
2019-05-13T09:21:04.672Z,99.90
2019-05-13T09:23:35.725Z,99.90
2019-05-13T09:26:06.642Z,99.90
2019-05-13T09:28:37.477Z,99.20
2019-05-13T09:31:08.079Z,97.40
2019-05-13T09:33:38.669Z,96.80
2019-05-13T09:36:09.384Z,97.10
2019-05-13T09:38:41.878Z,99.30
2019-05-13T09:41:12.664Z,98.40
2019-05-13T09:43:43.196Z,99.30
2019-05-13T09:46:22.541Z,98.70
2019-05-13T09:49:11.521Z,97.90
2019-05-13T09:51:27.260Z,97.90
2019-05-13T09:53:58.235Z,97.90
2019-05-13T09:56:28.859Z,96.60
2019-05-13T09:59:01.658Z,95.10
2019-05-13T10:01:33.991Z,94.50
2019-05-13T10:04:06.766Z,92.30
2019-05-13T10:06:37.345Z,92.80
2019-05-13T10:09:08.851Z,92.50
2019-05-13T10:11:39.389Z,90.60
2019-05-13T10:14:11.689Z,86.60
2019-05-13T10:16:42.766Z,85.80
2019-05-13T10:19:13.357Z,88.60
2019-05-13T10:21:46.008Z,88.30
2019-05-13T10:24:17.285Z,88.80
2019-05-13T10:26:51.360Z,90.80
2019-05-13T10:29:22.363Z,91.70
2019-05-13T10:31:53.900Z,92.80
2019-05-13T10:34:24.555Z,94.20
2019-05-13T10:36:55.793Z,92.30
2019-05-13T10:39:26.415Z,92.30
2019-05-13T10:41:56.968Z,91.30
2019-05-13T10:44:30.420Z,91.00
2019-05-13T10:47:02.552Z,90.20
2019-05-13T10:49:35.130Z,82.20
2019-05-13T10:52:05.762Z,77.30
2019-05-13T10:54:36.336Z,69.90
2019-05-13T10:57:06.893Z,67.90
2019-05-13T10:59:38.095Z,59.90
2019-05-13T11:02:13.080Z,63.20
2019-05-13T11:04:42.713Z,63.40
2019-05-13T11:07:13.205Z,62.30
2019-05-13T11:09:44.191Z,63.80
2019-05-13T11:12:14.829Z,61.20
2019-05-13T11:14:46.773Z,56.20
2019-05-13T11:17:25.599Z,58.00
2019-05-13T11:19:49.677Z,57.00
2019-05-13T11:22:22.312Z,54.40
2019-05-13T11:24:54.553Z,53.50
2019-05-13T11:27:25.497Z,52.90
2019-05-13T11:29:56.018Z,53.20
2019-05-13T11:32:26.548Z,54.70
2019-05-13T11:34:57.141Z,54.10
2019-05-13T11:37:28.472Z,51.10
2019-05-13T11:40:02.883Z,51.80
2019-05-13T11:42:33.223Z,49.70
2019-05-13T11:45:03.889Z,49.20
2019-05-13T11:47:35.246Z,51.80
2019-05-13T11:50:07.150Z,52.20
2019-05-13T11:52:38.245Z,51.90
2019-05-13T11:55:12.891Z,51.70
2019-05-13T11:57:44.471Z,50.70
2019-05-13T12:00:19.475Z,54.00
2019-05-13T12:02:52.002Z,54.40
2019-05-13T12:05:22.743Z,53.90
2019-05-13T12:08:13.026Z,54.90
2019-05-13T12:10:45.481Z,53.60
2019-05-13T12:13:16.837Z,52.90
2019-05-13T12:15:49.931Z,52.70
2019-05-13T12:18:23.345Z,53.60
2019-05-13T12:20:54.231Z,54.70
2019-05-13T12:23:25.023Z,54.40
2019-05-13T12:25:55.491Z,54.70
2019-05-13T12:28:38.435Z,56.20
2019-05-13T12:31:12.171Z,56.10
2019-05-13T12:33:44.181Z,52.80
2019-05-13T12:36:17.882Z,51.20
2019-05-13T12:38:47.042Z,49.90
2019-05-13T12:41:18.776Z,50.40
2019-05-13T12:43:53.590Z,51.80
2019-05-13T12:46:24.673Z,53.00
2019-05-13T12:48:55.550Z,52.60
2019-05-13T12:51:26.180Z,53.70
2019-05-13T12:53:57.216Z,55.50
2019-05-13T12:56:27.752Z,56.50
2019-05-13T12:58:58.293Z,54.30
2019-05-13T13:01:28.777Z,51.90
2019-05-13T13:03:59.909Z,49.70
2019-05-13T13:06:40.254Z,49.10
2019-05-13T13:09:06.153Z,48.00
2019-05-13T13:11:36.749Z,48.00
2019-05-13T13:14:11.341Z,49.50
2019-05-13T13:16:42.361Z,51.60
2019-05-13T13:19:14.545Z,49.90
2019-05-13T13:21:46.097Z,51.90
2019-05-13T13:24:17.161Z,51.50
2019-05-13T13:26:47.725Z,51.60
2019-05-13T13:29:18.744Z,51.10
2019-05-13T13:31:54.043Z,51.70
2019-05-13T13:34:26.020Z,48.60
2019-05-13T13:36:54.636Z,43.50
2019-05-13T13:39:25.741Z,42.00
2019-05-13T13:41:56.872Z,41.60
2019-05-13T13:44:34.756Z,38.90
2019-05-13T13:47:02.373Z,38.10
2019-05-13T13:49:34.878Z,38.90
2019-05-13T13:52:06.052Z,41.30
2019-05-13T13:54:37.573Z,42.10
2019-05-13T13:57:08.262Z,42.90
2019-05-13T14:00:11.749Z,43.90
2019-05-13T14:02:13.441Z,44.30
2019-05-13T14:04:45.383Z,46.20
2019-05-13T14:07:26.102Z,44.70
2019-05-13T14:09:48.409Z,43.80
2019-05-13T14:12:19.073Z,44.60
2019-05-13T14:14:52.087Z,45.50
2019-05-13T14:17:22.725Z,47.10
2019-05-13T14:19:53.333Z,46.50
2019-05-13T14:22:41.781Z,44.10
2019-05-13T14:25:42.032Z,44.50
2019-05-13T14:28:17.673Z,43.10
2019-05-13T14:30:46.769Z,42.80
2019-05-13T14:33:18.813Z,42.10
2019-05-13T14:35:49.319Z,42.40
2019-05-13T14:38:22.340Z,43.40
2019-05-13T14:40:52.788Z,44.00
2019-05-13T14:43:24.143Z,42.00
2019-05-13T14:45:55.531Z,44.00
2019-05-13T14:48:26.037Z,44.50
2019-05-13T14:50:58.982Z,45.50
2019-05-13T14:53:28.747Z,44.50
2019-05-13T14:55:59.313Z,43.10
2019-05-13T14:58:32.472Z,41.00
2019-05-13T15:01:14.791Z,38.70
2019-05-13T15:03:34.618Z,38.40
2019-05-13T15:06:05.474Z,37.60
2019-05-13T15:08:36.373Z,40.30
2019-05-13T15:11:07.282Z,40.60
2019-05-13T15:13:38.225Z,42.70
2019-05-13T15:16:08.752Z,43.60
2019-05-13T15:18:48.329Z,44.20
2019-05-13T15:21:21.236Z,43.40
2019-05-13T15:23:51.721Z,42.80
2019-05-13T15:26:23.184Z,41.30
2019-05-13T15:28:53.866Z,41.80
2019-05-13T15:31:24.401Z,39.90
2019-05-13T15:33:54.988Z,39.50
2019-05-13T15:36:25.548Z,39.10
2019-05-13T15:38:56.236Z,40.20
2019-05-13T15:41:27.282Z,42.30
2019-05-13T15:44:03.408Z,42.20
2019-05-13T15:46:34.687Z,42.70
2019-05-13T15:49:05.776Z,43.40
2019-05-13T15:51:36.314Z,43.80
2019-05-13T15:54:08.581Z,41.70
2019-05-13T15:56:39.052Z,41.20
2019-05-13T15:59:12.227Z,41.00
2019-05-13T16:01:41.756Z,40.60
2019-05-13T16:04:13.850Z,42.20
2019-05-13T16:06:44.434Z,41.50
2019-05-13T16:09:15.734Z,41.00
2019-05-13T16:11:46.416Z,39.90
2019-05-13T16:14:17.992Z,40.00
2019-05-13T16:16:48.661Z,40.80
2019-05-13T16:19:21.963Z,41.40
2019-05-13T16:21:52.159Z,41.50
2019-05-13T16:24:22.771Z,40.70
2019-05-13T16:26:53.658Z,41.70
2019-05-13T16:29:24.166Z,42.60
2019-05-13T16:31:55.070Z,41.40
2019-05-13T16:34:25.618Z,41.30
2019-05-13T16:36:56.494Z,41.80
2019-05-13T16:39:27.354Z,42.10
2019-05-13T16:41:58.361Z,41.80
2019-05-13T16:44:31.828Z,43.00
2019-05-13T16:47:02.230Z,43.40
2019-05-13T16:49:32.710Z,43.40
2019-05-13T16:52:03.461Z,44.20
2019-05-13T16:54:33.942Z,44.10
2019-05-13T16:57:04.472Z,45.30
2019-05-13T16:59:55.496Z,45.70
2019-05-13T17:02:26.018Z,46.20
2019-05-13T17:04:58.225Z,45.90
2019-05-13T17:07:28.797Z,46.60
2019-05-13T17:10:01.095Z,46.80
2019-05-13T17:12:32.581Z,46.50
2019-05-13T17:15:03.232Z,45.70
2019-05-13T17:17:34.305Z,46.20
2019-05-13T17:20:05.360Z,46.60
2019-05-13T17:22:36.031Z,46.70
2019-05-13T17:25:06.708Z,46.80
2019-05-13T17:27:37.771Z,46.30
2019-05-13T17:30:11.508Z,46.30
2019-05-13T17:32:42.317Z,45.40
2019-05-13T17:35:14.184Z,45.60
2019-05-13T17:37:45.212Z,46.00
2019-05-13T17:40:15.825Z,45.00
2019-05-13T17:42:46.410Z,44.90
2019-05-13T17:45:17.684Z,44.60
2019-05-13T17:47:48.324Z,45.60
2019-05-13T17:50:19.313Z,45.70
2019-05-13T17:52:51.382Z,45.80
2019-05-13T17:55:22.418Z,46.10
2019-05-13T17:57:53.831Z,46.10
2019-05-13T18:00:25.024Z,46.20
2019-05-13T18:02:55.597Z,47.20
2019-05-13T18:05:26.698Z,47.70
2019-05-13T18:07:57.529Z,48.10
2019-05-13T18:10:28.075Z,47.90
2019-05-13T18:12:58.831Z,48.20
2019-05-13T18:15:31.432Z,48.40
2019-05-13T18:18:02.070Z,49.00
2019-05-13T18:20:32.614Z,49.20
2019-05-13T18:23:03.185Z,49.30
2019-05-13T18:25:34.769Z,49.50
2019-05-13T18:28:05.252Z,50.00
2019-05-13T18:30:36.233Z,50.40
2019-05-13T18:33:06.732Z,51.00
2019-05-13T18:35:37.189Z,51.80
2019-05-13T18:38:08.072Z,52.30
2019-05-13T18:40:38.998Z,52.70
2019-05-13T18:43:09.628Z,53.60
2019-05-13T18:45:41.940Z,53.50
2019-05-13T18:48:14.085Z,54.10
2019-05-13T18:50:45.752Z,53.80
2019-05-13T18:53:16.176Z,53.70
2019-05-13T18:55:46.588Z,53.40
2019-05-13T18:58:17.493Z,54.00
2019-05-13T19:00:48.396Z,54.50
2019-05-13T19:03:21.801Z,54.80
2019-05-13T19:05:52.901Z,55.30
2019-05-13T19:08:23.689Z,55.00
2019-05-13T19:10:54.737Z,55.40
2019-05-13T19:13:25.305Z,55.60
2019-05-13T19:15:56.666Z,55.90
2019-05-13T19:18:27.363Z,56.40
2019-05-13T19:20:58.649Z,57.20
2019-05-13T19:23:31.313Z,57.70
2019-05-13T19:26:02.412Z,58.20
2019-05-13T19:28:33.103Z,58.30
2019-05-13T19:31:04.272Z,58.70
2019-05-13T19:33:35.107Z,58.70
2019-05-13T19:36:05.811Z,58.80
2019-05-13T19:38:36.535Z,59.20
2019-05-13T19:41:07.849Z,59.70
2019-05-13T19:43:38.523Z,60.60
2019-05-13T19:46:09.171Z,60.80
2019-05-13T19:48:41.746Z,61.10
2019-05-13T19:51:14.943Z,62.20
2019-05-13T19:53:46.736Z,62.70
2019-05-13T19:56:17.798Z,63.40
2019-05-13T19:58:48.805Z,64.50
2019-05-13T20:01:21.717Z,65.00
2019-05-13T20:03:53.523Z,65.60
2019-05-13T20:06:25.024Z,66.00
2019-05-13T20:08:56.117Z,66.60
2019-05-13T20:11:26.733Z,65.40
2019-05-13T20:13:58.072Z,66.50
2019-05-13T20:16:29.033Z,67.80
2019-05-13T20:19:01.248Z,68.40
2019-05-13T20:21:32.476Z,68.50
2019-05-13T20:24:03.166Z,68.80
2019-05-13T20:26:35.543Z,70.60
2019-05-13T20:29:06.131Z,72.30
2019-05-13T20:31:37.021Z,73.20
2019-05-13T20:34:11.635Z,74.40
2019-05-13T20:36:44.324Z,74.40
2019-05-13T20:39:15.467Z,74.90
2019-05-13T20:41:46.901Z,76.10
2019-05-13T20:44:26.173Z,75.80
2019-05-13T20:46:56.840Z,75.50
2019-05-13T20:49:28.480Z,73.80
2019-05-13T20:51:59.774Z,72.80
2019-05-13T20:54:31.479Z,73.40
2019-05-13T20:57:14.314Z,72.50
2019-05-13T20:59:51.518Z,70.70
2019-05-13T21:02:22.279Z,70.80
2019-05-13T21:04:53.303Z,69.90
2019-05-13T21:07:52.578Z,69.30
2019-05-13T21:10:26.620Z,68.60
2019-05-13T21:12:57.558Z,68.80
2019-05-13T21:15:28.748Z,67.40
2019-05-13T21:17:59.513Z,66.70
2019-05-13T21:20:31.963Z,67.90
2019-05-13T21:23:03.189Z,67.20
2019-05-13T21:25:34.189Z,65.40
2019-05-13T21:28:05.236Z,64.50
2019-05-13T21:30:35.875Z,63.90
2019-05-13T21:33:06.435Z,63.50
2019-05-13T21:35:37.057Z,64.00
2019-05-13T21:38:08.440Z,63.30
2019-05-13T21:40:41.482Z,62.70
2019-05-13T21:43:11.966Z,62.80
2019-05-13T21:45:43.483Z,62.80
2019-05-13T21:48:14.895Z,62.90
2019-05-13T21:50:45.740Z,62.70
2019-05-13T21:53:16.809Z,62.90
2019-05-13T21:55:47.385Z,64.40
2019-05-13T21:58:17.962Z,64.40
2019-05-13T22:00:49.008Z,64.80
2019-05-13T22:03:20.484Z,65.30
2019-05-13T22:05:51.663Z,65.40
2019-05-13T22:08:23.139Z,65.80
2019-05-13T22:10:53.699Z,65.90
2019-05-13T22:13:27.339Z,66.10
2019-05-13T22:15:58.277Z,66.70
2019-05-13T22:18:31.348Z,66.40
2019-05-13T22:21:02.998Z,66.20
2019-05-13T22:23:33.658Z,67.10
2019-05-13T22:26:04.708Z,67.50
2019-05-13T22:28:35.425Z,67.60
2019-05-13T22:31:08.298Z,67.80
2019-05-13T22:33:41.123Z,68.50
2019-05-13T22:36:11.875Z,70.10
2019-05-13T22:38:44.361Z,69.70
2019-05-13T22:41:15.396Z,70.20
2019-05-13T22:43:57.567Z,69.70
2019-05-13T22:46:21.233Z,70.30
2019-05-13T22:48:52.639Z,70.60
2019-05-13T22:51:24.343Z,71.50
2019-05-13T22:53:55.477Z,71.10
2019-05-13T22:56:32.373Z,71.50
2019-05-13T22:59:22.638Z,72.60
2019-05-13T23:01:56.502Z,73.10
2019-05-13T23:04:27.943Z,73.70
2019-05-13T23:07:01.137Z,74.20
2019-05-13T23:09:32.306Z,74.90
2019-05-13T23:12:03.839Z,75.20
2019-05-13T23:14:34.479Z,76.00
2019-05-13T23:17:05.010Z,76.20
2019-05-13T23:19:36.082Z,77.30
2019-05-13T23:22:06.817Z,78.80
2019-05-13T23:24:37.454Z,78.80
2019-05-13T23:27:08.032Z,79.10
2019-05-13T23:29:38.614Z,80.20
2019-05-13T23:32:09.100Z,81.00
2019-05-13T23:34:42.027Z,81.50
2019-05-13T23:37:11.814Z,82.50
2019-05-13T23:39:42.353Z,83.40
2019-05-13T23:42:13.928Z,83.70
2019-05-13T23:44:44.450Z,84.80
2019-05-13T23:47:15.066Z,85.50
2019-05-13T23:49:45.604Z,86.10
2019-05-13T23:52:16.169Z,86.90
2019-05-13T23:54:47.277Z,88.90
2019-05-13T23:57:17.780Z,89.40
2019-05-13T23:59:48.314Z,90.10
